Česky Dansk Deutsch English Español Suomi Français Magyar Italiano Nederlands norsk Polski Português svenska Türkçe

 

Het Weer

Lanveoc Poulmic (Frankrijk)

03:00, 22 augustus 2016 (GMT)

NWNNE
WE
SWSSE
Home            
Lanveoc Poulmic Brest Landivisiau Quimper Morlaix / Ploujean Lannion / Servel Lann Bihoue Saint-Brieuc Dinard Guernsey Airport Jersey Airport St-Nazaire Rennes Culdrose Scilly, Saint Mary'S Alderney / Channel Island Plymouth Plymouth / Roborough Saint Mawgan Nantes Cherbourg / Maupertus Exeter Airport La Roche-Sur-Yon

Om een weerknop op uw website of weblog te plaatsen, copieer onderstaande code en plak die in uw pagina. In het eerste vakje staat HTML-code, in het tweede vakje UBB-code.


Add to Google

Details

Wind speed:2 bf, 4 kn, 2.1 m/s, 4.6 miles/h, 7.4 km/h
Wind direction:S, 190°
Visibility:Greater than 10000 m, 10 km, 32800 ft, 6.2 miles
Clouds:CAVOC
Temperature:15°C, 59°F
Dew-point:14°C, 57°F
Atmospheric pressure:1025 hPa, 768.8 mmHg, 30.27 inHg, 1.012 atm
Relative humidity:93.7 %
METAR:LFRL 220300Z AUTO 19004KT CAVOK 15/14 Q1025

Snelkoppelingen

Actuele weersinformatie van de hele wereld. Voeg locaties toe met het plus (+) symbool. Deze snelkoppelingen kunnen worden toegevoegd aan Google.

Lid van de Technetium groep

website free tracking
StatCounter NetStat W3C Validator

19-10-2020 05:19:32
astro.technetium.be money.technetium.be phote.technetium.be tafeltennistafel.technetium.be www.ligfiets.net